Airport View

Enter AWOS ICAO identifier for current METAR.

ex. KFNL

KSIK 262320Z AUTO 32006KT 10SM BKN050 03/M02 A3021 RMK AO2

26 Feb 2020 23:18

Frequency: 119.175

Phone: 573-471-7371

Other Area AWOS: KCIR - KCGI - KMAW - KPOF

TAF KCGI 261720Z 2618/2718 33014G22KT P6SM OVC022 FM262200 32014KT P6SM OVC035 FM270700 31006KT P6SM FEW250